createdAt,value
2019-04-03T00:02:10.257Z,88.80
2019-04-03T00:07:06.187Z,88.66
2019-04-03T00:12:02.316Z,88.77
2019-04-03T00:16:58.364Z,88.80
2019-04-03T00:21:54.237Z,89.10
2019-04-03T00:26:51.867Z,88.73
2019-04-03T00:31:48.892Z,88.91
2019-04-03T00:36:44.821Z,88.84
2019-04-03T00:41:40.744Z,88.78
2019-04-03T00:46:36.668Z,89.38
2019-04-03T00:51:32.591Z,89.16
2019-04-03T00:56:28.594Z,89.08
2019-04-03T01:01:26.154Z,88.83
2019-04-03T01:06:22.350Z,88.57
2019-04-03T01:11:18.270Z,88.78
2019-04-03T01:16:14.288Z,88.69
2019-04-03T01:21:10.220Z,88.47
2019-04-03T01:26:06.249Z,87.82
2019-04-03T01:31:02.371Z,83.99
2019-04-03T01:35:58.342Z,85.52
2019-04-03T01:40:54.265Z,85.07
2019-04-03T01:45:50.300Z,84.96
2019-04-03T01:50:46.326Z,85.75
2019-04-03T01:55:42.437Z,85.47
2019-04-03T02:00:38.823Z,85.70
2019-04-03T02:05:34.811Z,87.16
2019-04-03T02:10:30.920Z,87.73
2019-04-03T02:15:27.166Z,88.69
2019-04-03T02:20:26.119Z,87.34
2019-04-03T02:25:22.105Z,88.74
2019-04-03T02:30:18.236Z,87.90
2019-04-03T02:35:14.258Z,89.86
2019-04-03T02:40:10.390Z,89.96
2019-04-03T02:45:06.618Z,89.75
2019-04-03T02:50:03.845Z,90.78
2019-04-03T02:55:00.426Z,89.07
2019-04-03T02:59:58.782Z,89.14
2019-04-03T03:04:55.258Z,89.27
2019-04-03T03:09:51.864Z,89.80
2019-04-03T03:14:48.220Z,90.12
2019-04-03T03:19:44.911Z,88.82
2019-04-03T03:24:42.806Z,89.25
2019-04-03T03:29:39.381Z,89.89
2019-04-03T03:34:51.776Z,90.45
2019-04-03T03:39:33.917Z,91.64
2019-04-03T03:44:30.065Z,91.96
2019-04-03T03:49:26.976Z,92.40
2019-04-03T03:54:26.279Z,92.78
2019-04-03T03:59:23.145Z,92.68
2019-04-03T04:04:19.442Z,91.18
2019-04-03T04:09:17.449Z,87.88
2019-04-03T04:14:13.502Z,88.62
2019-04-03T04:19:09.956Z,88.57
2019-04-03T04:24:13.467Z,89.69
2019-04-03T04:29:10.736Z,89.96
2019-04-03T04:34:07.372Z,90.30
2019-04-03T04:39:06.602Z,90.34
2019-04-03T04:44:02.929Z,89.71
2019-04-03T04:48:58.854Z,91.13
2019-04-03T04:53:54.812Z,91.70
2019-04-03T04:58:50.755Z,92.15
2019-04-03T05:03:46.687Z,91.64
2019-04-03T05:08:42.752Z,92.03
2019-04-03T05:13:38.678Z,91.98
2019-04-03T05:18:34.610Z,89.39
2019-04-03T05:23:30.541Z,90.03
2019-04-03T05:28:26.472Z,89.92
2019-04-03T05:33:22.429Z,90.46
2019-04-03T05:38:18.363Z,90.82
2019-04-03T05:43:14.284Z,90.10
2019-04-03T05:48:12.594Z,89.88
2019-04-03T05:53:08.065Z,89.25
2019-04-03T05:58:04.134Z,90.06
2019-04-03T06:03:00.235Z,90.51
2019-04-03T06:07:56.247Z,91.17
2019-04-03T06:12:52.163Z,91.36
2019-04-03T06:17:50.319Z,91.26
2019-04-03T06:22:45.909Z,91.16
2019-04-03T06:27:45.475Z,91.40
2019-04-03T06:32:40.184Z,90.71
2019-04-03T06:37:36.115Z,90.97
2019-04-03T06:42:32.037Z,85.66
2019-04-03T06:47:27.955Z,84.31
2019-04-03T06:52:24.048Z,83.03
2019-04-03T06:57:20.002Z,84.13
2019-04-03T07:02:15.921Z,83.25
2019-04-03T07:07:11.841Z,82.60
2019-04-03T07:12:07.760Z,81.99
2019-04-03T07:17:05.872Z,82.31
2019-04-03T07:22:01.510Z,81.32
2019-04-03T07:26:57.430Z,82.33
2019-04-03T07:31:55.147Z,82.55
2019-04-03T07:36:51.219Z,84.02
2019-04-03T07:41:47.321Z,84.62
2019-04-03T07:46:43.583Z,83.89
2019-04-03T07:51:39.634Z,84.65
2019-04-03T07:56:35.563Z,85.04
2019-04-03T08:01:31.501Z,84.99
2019-04-03T08:06:27.428Z,82.52
2019-04-03T08:11:23.346Z,82.77
2019-04-03T08:16:19.488Z,81.35
2019-04-03T08:21:17.555Z,80.75
2019-04-03T08:26:14.527Z,80.42
2019-04-03T08:31:11.869Z,80.53
2019-04-03T08:36:22.561Z,79.57
2019-04-03T08:41:08.019Z,80.57
2019-04-03T08:46:04.019Z,80.39
2019-04-03T08:51:02.324Z,81.01
2019-04-03T08:55:58.071Z,79.47
2019-04-03T09:00:54.065Z,79.90
2019-04-03T09:05:50.957Z,79.63
2019-04-03T09:10:47.807Z,79.27
2019-04-03T09:15:44.640Z,79.58
2019-04-03T09:20:41.085Z,79.86
2019-04-03T09:25:38.615Z,80.56
2019-04-03T09:30:34.748Z,80.48
2019-04-03T09:35:32.425Z,80.30
2019-04-03T09:40:28.682Z,80.84
2019-04-03T09:45:26.082Z,80.35
2019-04-03T09:50:23.018Z,79.48
2019-04-03T09:55:19.149Z,78.24
2019-04-03T10:00:36.857Z,78.37
2019-04-03T10:05:32.893Z,78.24
2019-04-03T10:10:29.055Z,78.54
2019-04-03T10:15:24.993Z,77.04
2019-04-03T10:25:45.295Z,77.79
2019-04-03T10:30:41.258Z,77.39
2019-04-03T10:35:39.328Z,77.32
2019-04-03T10:40:35.415Z,78.14
2019-04-03T10:45:33.013Z,78.28
2019-04-03T10:50:28.936Z,79.81
2019-04-03T10:55:25.845Z,82.91
2019-04-03T11:00:24.633Z,84.63
2019-04-03T11:05:20.688Z,86.78
2019-04-03T11:10:16.735Z,87.91
2019-04-03T11:15:54.673Z,89.38
2019-04-03T11:20:51.067Z,89.82
2019-04-03T11:25:48.473Z,90.46
2019-04-03T11:30:44.400Z,90.60
2019-04-03T11:36:24.793Z,89.76
2019-04-03T11:41:22.731Z,89.76
2019-04-03T11:46:17.676Z,89.38
2019-04-03T11:51:13.595Z,89.07
2019-04-03T11:56:12.367Z,88.78
2019-04-03T12:06:11.360Z,88.30
2019-04-03T12:11:07.534Z,89.73
2019-04-03T12:16:26.228Z,89.31
2019-04-03T12:21:22.815Z,89.50
2019-04-03T12:26:20.794Z,90.20
2019-04-03T12:31:16.626Z,89.91
2019-04-03T12:36:13.509Z,88.81
2019-04-03T12:41:10.365Z,86.70
2019-04-03T12:46:07.327Z,86.36
2019-04-03T12:51:05.683Z,85.38
2019-04-03T12:56:03.951Z,84.87
2019-04-03T13:01:21.920Z,83.55
2019-04-03T13:06:20.642Z,83.90
2019-04-03T13:11:58.546Z,84.54
2019-04-03T13:16:54.481Z,84.66
2019-04-03T13:21:50.533Z,83.46
2019-04-03T13:26:46.470Z,81.47
2019-04-03T13:31:44.472Z,82.55
2019-04-03T13:36:40.330Z,82.73
2019-04-03T13:41:36.255Z,83.27
2019-04-03T13:46:32.575Z,83.60
2019-04-03T13:51:29.056Z,83.51
2019-04-03T13:56:27.606Z,80.85
2019-04-03T14:01:27.553Z,80.66
2019-04-03T14:06:22.335Z,77.93
2019-04-03T14:11:18.464Z,79.00
2019-04-03T14:16:21.711Z,83.30
2019-04-03T14:21:14.181Z,82.37
2019-04-03T14:26:12.989Z,82.24
2019-04-03T14:31:50.093Z,81.17
2019-04-03T14:36:46.132Z,81.37
2019-04-03T14:41:42.095Z,79.65
2019-04-03T14:46:38.102Z,78.09
2019-04-03T14:51:34.213Z,76.40
2019-04-03T14:56:33.262Z,77.35
2019-04-03T15:01:28.775Z,76.99
2019-04-03T15:06:24.708Z,79.37
2019-04-03T15:11:21.981Z,78.25
2019-04-03T15:16:19.566Z,74.76
2019-04-03T15:26:21.754Z,77.97
2019-04-03T15:37:14.151Z,75.72
2019-04-03T15:42:32.360Z,76.42
2019-04-03T15:47:36.568Z,76.46
2019-04-03T15:52:28.386Z,74.71
2019-04-03T15:57:25.458Z,75.80
2019-04-03T16:02:21.593Z,74.72
2019-04-03T16:07:18.495Z,76.54
2019-04-03T16:12:14.681Z,74.67
2019-04-03T16:17:11.243Z,75.09
2019-04-03T16:22:07.270Z,80.54
2019-04-03T16:27:03.370Z,82.28
2019-04-03T16:31:59.552Z,83.32
2019-04-03T16:36:56.633Z,84.12
2019-04-03T16:41:53.842Z,82.71
2019-04-03T16:46:49.797Z,82.41
2019-04-03T16:51:46.992Z,81.99
2019-04-03T16:56:43.222Z,82.71
2019-04-03T17:01:39.621Z,82.71
2019-04-03T17:06:36.647Z,83.91
2019-04-03T17:11:32.670Z,84.32
2019-04-03T17:16:28.609Z,82.80
2019-04-03T17:21:27.306Z,83.25
2019-04-03T17:26:22.634Z,81.85
2019-04-03T17:31:20.029Z,83.49
2019-04-03T17:36:19.171Z,83.46
2019-04-03T17:41:14.377Z,83.22
2019-04-03T17:46:10.392Z,83.80
2019-04-03T17:51:06.315Z,84.83
2019-04-03T17:56:02.522Z,86.03
2019-04-03T18:01:01.062Z,86.69
2019-04-03T18:06:03.587Z,85.39
2019-04-03T18:16:18.610Z,85.76
2019-04-03T18:21:15.148Z,86.56
2019-04-03T18:26:12.606Z,85.64
2019-04-03T18:31:08.545Z,85.54
2019-04-03T18:36:04.501Z,85.94
2019-04-03T18:41:00.436Z,85.28
2019-04-03T18:46:00.008Z,85.79
2019-04-03T18:50:54.344Z,86.67
2019-04-03T18:55:50.261Z,86.35
2019-04-03T19:00:46.190Z,85.88
2019-04-03T19:05:42.904Z,86.31
2019-04-03T19:10:39.335Z,87.36
2019-04-03T19:15:35.255Z,91.20
2019-04-03T19:20:31.184Z,91.40
2019-04-03T19:25:29.654Z,91.34
2019-04-03T19:30:28.433Z,91.34
2019-04-03T19:35:23.579Z,90.57
2019-04-03T19:40:19.567Z,90.16
2019-04-03T19:45:15.686Z,89.95
2019-04-03T19:50:11.847Z,89.69
2019-04-03T19:55:19.436Z,89.12
2019-04-03T20:00:15.756Z,88.73
2019-04-03T20:05:12.514Z,88.74
2019-04-03T20:10:08.684Z,88.02
2019-04-03T20:15:05.809Z,87.45
2019-04-03T20:20:03.827Z,87.57
2019-04-03T20:25:00.747Z,88.59
2019-04-03T20:29:56.797Z,89.37
2019-04-03T20:34:52.806Z,90.07
2019-04-03T20:39:48.766Z,89.61
2019-04-03T20:44:47.920Z,90.03
2019-04-03T20:49:43.841Z,87.50
2019-04-03T20:54:41.224Z,88.70
2019-04-03T20:59:37.250Z,89.72
2019-04-03T21:04:33.269Z,90.47
2019-04-03T21:09:30.421Z,90.70
2019-04-03T21:14:26.663Z,90.95
2019-04-03T21:19:22.579Z,90.38
2019-04-03T21:24:23.764Z,90.90
2019-04-03T21:29:19.807Z,88.91
2019-04-03T21:34:15.731Z,88.23
2019-04-03T21:39:13.006Z,89.05
2019-04-03T21:44:09.709Z,90.12
2019-04-03T21:49:05.710Z,90.09
2019-04-03T21:59:19.020Z,88.64
2019-04-03T22:04:14.940Z,89.40
2019-04-03T22:09:11.765Z,89.81
2019-04-03T22:14:10.698Z,90.65
2019-04-03T22:19:05.808Z,91.54
2019-04-03T22:24:08.208Z,91.37
2019-04-03T22:29:04.330Z,91.62
2019-04-03T22:34:00.243Z,91.91
2019-04-03T22:38:56.159Z,92.34
2019-04-03T22:43:52.070Z,92.61
2019-04-03T22:48:47.987Z,90.75
2019-04-03T22:53:43.933Z,90.37
2019-04-03T22:58:39.931Z,90.81
2019-04-03T23:03:35.856Z,91.57
2019-04-03T23:08:32.680Z,92.38
2019-04-03T23:13:28.688Z,92.80
2019-04-03T23:18:24.736Z,92.56
2019-04-03T23:23:20.640Z,92.88
2019-04-03T23:28:16.560Z,92.73
2019-04-03T23:33:12.569Z,92.58
2019-04-03T23:38:08.487Z,92.81
2019-04-03T23:43:04.480Z,91.92
2019-04-03T23:48:00.357Z,91.83
2019-04-03T23:52:56.375Z,92.30
2019-04-03T23:57:52.319Z,92.23
